createdAt,value
2022-07-26T00:00:16.886Z,101177.91
2022-07-26T00:02:48.397Z,101174.31
2022-07-26T00:05:18.266Z,101170.88
2022-07-26T00:07:46.942Z,101169.38
2022-07-26T00:10:14.708Z,101167.81
2022-07-26T00:12:42.507Z,101173.31
2022-07-26T00:15:11.256Z,101169.63
2022-07-26T00:17:39.001Z,101171.25
2022-07-26T00:20:07.054Z,101175.28
2022-07-26T00:22:34.385Z,101175.28
2022-07-26T00:25:07.764Z,101175.16
2022-07-26T00:27:38.722Z,101173.50
2022-07-26T00:30:07.114Z,101169.31
2022-07-26T00:32:34.319Z,101173.53
2022-07-26T00:35:01.628Z,101168.56
2022-07-26T00:37:28.747Z,101168.56
2022-07-26T00:39:56.436Z,101168.56
2022-07-26T00:42:23.953Z,101171.28
2022-07-26T00:44:51.694Z,101166.84
2022-07-26T00:47:18.957Z,101165.03
2022-07-26T00:49:47.514Z,101162.41
2022-07-26T00:52:14.660Z,101159.94
2022-07-26T00:54:45.678Z,101168.91
2022-07-26T00:57:14.323Z,101173.09
2022-07-26T00:59:44.921Z,101173.06
2022-07-26T01:02:13.192Z,101177.44
2022-07-26T01:04:44.776Z,101173.72
2022-07-26T01:07:14.782Z,101171.03
2022-07-26T01:09:43.299Z,101169.09
2022-07-26T01:12:10.573Z,101175.47
2022-07-26T01:14:38.359Z,101166.53
2022-07-26T01:17:05.482Z,101169.38
2022-07-26T01:19:33.018Z,101163.03
2022-07-26T01:22:01.063Z,101173.53
2022-07-26T01:24:27.974Z,101168.31
2022-07-26T01:26:58.177Z,101172.03
2022-07-26T01:29:36.202Z,101170.94
2022-07-26T01:32:05.437Z,101166.75
2022-07-26T01:34:33.002Z,101165.97
2022-07-26T01:37:02.168Z,101171.28
2022-07-26T01:39:29.698Z,101166.94
2022-07-26T01:41:56.898Z,101172.34
2022-07-26T01:44:24.357Z,101163.25
2022-07-26T01:46:51.843Z,101166.09
2022-07-26T01:49:19.114Z,101170.88
2022-07-26T01:51:46.755Z,101171.00
2022-07-26T01:54:13.721Z,101170.25
2022-07-26T01:56:43.313Z,101172.91
2022-07-26T01:59:10.437Z,101173.63
2022-07-26T02:01:39.977Z,101174.53
2022-07-26T02:04:09.371Z,101174.41
2022-07-26T02:06:37.551Z,101169.91
2022-07-26T02:09:07.493Z,101166.59
2022-07-26T02:11:34.968Z,101172.69
2022-07-26T02:14:03.085Z,101171.94
2022-07-26T02:16:30.016Z,101171.16
2022-07-26T02:18:57.977Z,101173.13
2022-07-26T02:21:25.214Z,101174.75
2022-07-26T02:23:54.460Z,101171.38
2022-07-26T02:26:22.178Z,101181.84
2022-07-26T02:28:49.918Z,101180.25
2022-07-26T02:31:17.605Z,101180.91
2022-07-26T02:33:44.355Z,101175.50
2022-07-26T02:36:11.622Z,101175.44
2022-07-26T02:38:38.556Z,101179.72
2022-07-26T02:41:06.268Z,101182.56
2022-07-26T02:43:33.542Z,101179.81
2022-07-26T02:46:02.197Z,101184.50
2022-07-26T02:48:32.524Z,101194.97
2022-07-26T02:50:59.688Z,101195.91
2022-07-26T02:53:27.400Z,101198.06
2022-07-26T02:55:54.446Z,101193.75
2022-07-26T02:58:24.994Z,101198.06
2022-07-26T03:00:52.416Z,101195.84
2022-07-26T03:03:19.298Z,101200.94
2022-07-26T03:05:46.655Z,101193.09
2022-07-26T03:08:13.725Z,101196.47
2022-07-26T03:10:40.695Z,101200.13
2022-07-26T03:13:08.004Z,101200.22
2022-07-26T03:15:35.036Z,101209.69
2022-07-26T03:18:02.636Z,101212.34
2022-07-26T03:20:29.759Z,101210.16
2022-07-26T03:22:57.140Z,101213.28
2022-07-26T03:25:24.020Z,101214.03
2022-07-26T03:27:51.156Z,101214.25
2022-07-26T03:30:24.786Z,101210.59
2022-07-26T03:32:54.309Z,101219.66
2022-07-26T03:35:21.617Z,101221.97
2022-07-26T03:37:48.779Z,101219.00
2022-07-26T03:40:17.134Z,101222.09
2022-07-26T03:42:45.908Z,101223.13
2022-07-26T03:45:14.643Z,101230.22
2022-07-26T03:47:42.509Z,101245.84
2022-07-26T03:50:11.134Z,101235.22
2022-07-26T03:52:38.382Z,101239.69
2022-07-26T03:55:27.044Z,101239.59
2022-07-26T03:57:54.148Z,101245.75
2022-07-26T04:00:21.475Z,101247.31
2022-07-26T04:02:48.847Z,101250.13
2022-07-26T04:05:15.923Z,101254.38
2022-07-26T04:07:53.206Z,101247.47
2022-07-26T04:10:22.208Z,101255.56
2022-07-26T04:12:50.354Z,101247.03
2022-07-26T04:15:19.119Z,101252.50
2022-07-26T04:17:48.248Z,101258.97
2022-07-26T04:20:16.053Z,101254.69
2022-07-26T04:22:43.760Z,101251.25
2022-07-26T04:25:11.243Z,101261.22
2022-07-26T04:27:38.762Z,101258.53
2022-07-26T04:30:12.336Z,101266.41
2022-07-26T04:32:42.293Z,101262.25
2022-07-26T04:35:09.815Z,101262.06
2022-07-26T04:37:45.140Z,101268.38
2022-07-26T04:40:16.916Z,101274.47
2022-07-26T04:42:43.708Z,101270.94
2022-07-26T04:45:12.711Z,101274.47
2022-07-26T04:47:44.429Z,101271.81
2022-07-26T04:50:12.511Z,101273.69
2022-07-26T04:52:40.424Z,101271.03
2022-07-26T04:55:09.155Z,101270.88
2022-07-26T04:57:36.497Z,101280.63
2022-07-26T05:00:21.247Z,101274.47
2022-07-26T05:02:55.069Z,101279.84
2022-07-26T05:05:23.138Z,101274.66
2022-07-26T05:07:53.230Z,101281.69
2022-07-26T05:10:22.656Z,101278.75
2022-07-26T05:12:50.298Z,101281.59
2022-07-26T05:15:17.466Z,101283.94
2022-07-26T05:17:44.839Z,101282.84
2022-07-26T05:20:15.376Z,101292.75
2022-07-26T05:22:42.689Z,101278.66
2022-07-26T05:25:10.553Z,101282.75
2022-07-26T05:27:39.056Z,101293.22
2022-07-26T05:30:06.527Z,101282.84
2022-07-26T05:32:33.430Z,101275.44
2022-07-26T05:35:00.961Z,101287.69
2022-07-26T05:37:27.987Z,101284.13
2022-07-26T05:39:55.264Z,101289.00
2022-07-26T05:42:22.505Z,101283.94
2022-07-26T05:44:49.396Z,101275.81
2022-07-26T05:47:17.633Z,101286.28
2022-07-26T05:49:44.840Z,101285.06
2022-07-26T05:52:13.480Z,101286.75
2022-07-26T05:54:40.412Z,101286.06
2022-07-26T05:57:07.873Z,101275.91
2022-07-26T05:59:35.049Z,101285.38
2022-07-26T06:02:01.986Z,101271.28
2022-07-26T06:04:28.996Z,101292.16
2022-07-26T06:06:56.313Z,101289.97
2022-07-26T06:09:27.027Z,101296.84
2022-07-26T06:11:54.441Z,101300.19
2022-07-26T06:14:22.653Z,101301.84
2022-07-26T06:16:49.890Z,101290.28
2022-07-26T06:19:17.792Z,101288.66
2022-07-26T06:21:46.088Z,101289.41
2022-07-26T06:24:13.985Z,101303.84
2022-07-26T06:26:41.055Z,101310.09
2022-07-26T06:29:08.374Z,101308.94
2022-07-26T06:31:35.967Z,101314.22
2022-07-26T06:34:03.330Z,101310.34
2022-07-26T06:36:31.333Z,101310.75
2022-07-26T06:38:58.998Z,101311.78
2022-07-26T06:41:27.053Z,101310.53
2022-07-26T06:43:54.060Z,101319.50
2022-07-26T06:46:22.262Z,101323.75
2022-07-26T06:48:52.842Z,101327.09
2022-07-26T06:51:23.968Z,101327.66
2022-07-26T06:54:06.981Z,101327.75
2022-07-26T06:56:34.096Z,101334.78
2022-07-26T06:59:05.062Z,101330.31
2022-07-26T07:01:51.344Z,101329.50
2022-07-26T07:04:21.115Z,101336.50
2022-07-26T07:06:48.399Z,101333.78
2022-07-26T07:09:16.958Z,101326.13
2022-07-26T07:11:44.476Z,101330.06
2022-07-26T07:14:12.276Z,101329.06
2022-07-26T07:16:40.077Z,101334.16
2022-07-26T07:19:07.198Z,101326.94
2022-07-26T07:21:34.036Z,101334.63
2022-07-26T07:24:01.989Z,101337.97
2022-07-26T07:26:29.262Z,101339.44
2022-07-26T07:28:56.762Z,101347.56
2022-07-26T07:31:30.632Z,101346.38
2022-07-26T07:34:12.516Z,101341.28
2022-07-26T07:36:42.033Z,101344.66
2022-07-26T07:39:15.362Z,101338.94
2022-07-26T07:41:47.758Z,101339.88
2022-07-26T07:44:14.695Z,101344.75
2022-07-26T07:46:41.685Z,101350.34
2022-07-26T07:49:10.971Z,101346.53
2022-07-26T07:51:38.420Z,101353.59
2022-07-26T07:54:06.303Z,101351.97
2022-07-26T07:56:34.567Z,101353.34
2022-07-26T07:59:01.580Z,101357.28
2022-07-26T08:01:39.875Z,101353.66
2022-07-26T08:04:09.526Z,101358.34
2022-07-26T08:06:37.202Z,101344.28
2022-07-26T08:09:06.413Z,101349.47
2022-07-26T08:11:34.213Z,101356.72
2022-07-26T08:14:01.731Z,101352.13
2022-07-26T08:16:33.758Z,101357.59
2022-07-26T08:19:00.892Z,101348.22
2022-07-26T08:21:30.290Z,101346.94
2022-07-26T08:23:58.185Z,101360.44
2022-07-26T08:26:25.384Z,101355.06
2022-07-26T08:28:59.720Z,101355.69
2022-07-26T08:31:29.167Z,101350.13
2022-07-26T08:33:56.813Z,101353.84
2022-07-26T08:36:32.182Z,101358.53
2022-07-26T08:39:00.085Z,101356.25
2022-07-26T08:41:28.797Z,101359.97
2022-07-26T08:43:55.591Z,101358.66
2022-07-26T08:46:25.953Z,101359.66
2022-07-26T08:48:57.433Z,101356.16
2022-07-26T08:51:32.311Z,101361.28
2022-07-26T08:54:06.118Z,101354.47
2022-07-26T08:56:35.786Z,101360.75
2022-07-26T08:59:23.227Z,101360.25
2022-07-26T09:02:04.353Z,101370.91
2022-07-26T09:04:50.660Z,101371.50
2022-07-26T09:07:19.049Z,101363.13
2022-07-26T09:09:54.894Z,101367.19
2022-07-26T09:12:26.922Z,101363.13
2022-07-26T09:14:54.801Z,101367.22
2022-07-26T09:17:25.534Z,101373.84
2022-07-26T09:20:17.307Z,101370.13
2022-07-26T09:23:10.040Z,101369.72
2022-07-26T09:25:44.616Z,101368.38
2022-07-26T09:28:29.801Z,101361.72
2022-07-26T09:31:00.118Z,101369.81
2022-07-26T09:33:44.347Z,101365.06
2022-07-26T09:36:11.497Z,101364.66
2022-07-26T09:38:46.277Z,101372.59
2022-07-26T09:41:24.666Z,101365.69
2022-07-26T09:43:54.207Z,101364.81
2022-07-26T09:46:27.989Z,101371.06
2022-07-26T09:49:12.249Z,101374.22
2022-07-26T09:51:42.657Z,101367.53
2022-07-26T09:54:11.660Z,101376.84
2022-07-26T09:56:50.180Z,101377.28
2022-07-26T09:59:23.047Z,101378.84
2022-07-26T10:01:52.835Z,101378.59
2022-07-26T10:04:22.461Z,101390.31
2022-07-26T10:06:50.581Z,101395.59
2022-07-26T10:09:19.284Z,101408.31
2022-07-26T10:12:00.902Z,101404.25
2022-07-26T10:14:38.797Z,101425.78
2022-07-26T10:17:35.179Z,101431.78
2022-07-26T10:20:38.270Z,101422.72
2022-07-26T10:23:35.059Z,101427.13
2022-07-26T10:26:04.369Z,101429.69
2022-07-26T10:28:33.764Z,101434.56
2022-07-26T10:31:23.489Z,101437.13
2022-07-26T10:33:52.265Z,101447.19
2022-07-26T10:36:26.551Z,101452.28
2022-07-26T10:39:22.636Z,101459.50
2022-07-26T10:41:58.636Z,101468.41
2022-07-26T10:44:27.997Z,101466.03
2022-07-26T10:47:10.199Z,101482.97
2022-07-26T10:49:54.411Z,101476.94
2022-07-26T10:52:27.590Z,101480.16
2022-07-26T10:55:00.225Z,101475.69
2022-07-26T10:57:35.711Z,101477.50
2022-07-26T11:00:10.448Z,101484.38
2022-07-26T11:02:38.056Z,101466.44
2022-07-26T11:05:15.588Z,101478.09
2022-07-26T11:07:59.197Z,101475.94
2022-07-26T11:10:37.849Z,101482.84
2022-07-26T11:13:06.464Z,101484.69
2022-07-26T11:15:34.539Z,101480.31
2022-07-26T11:18:21.382Z,101479.97
2022-07-26T11:20:53.110Z,101480.63
2022-07-26T11:23:24.514Z,101477.16
2022-07-26T11:26:03.078Z,101491.09
2022-07-26T11:28:30.402Z,101496.91
2022-07-26T11:30:58.905Z,101487.72
2022-07-26T11:33:38.914Z,101501.34
2022-07-26T11:36:06.418Z,101498.53
2022-07-26T11:38:52.199Z,101494.16
2022-07-26T11:41:34.587Z,101491.38
2022-07-26T11:44:03.976Z,101480.47
2022-07-26T11:46:37.740Z,101495.88
2022-07-26T11:49:12.733Z,101483.91
2022-07-26T11:51:39.864Z,101484.78
2022-07-26T11:54:07.002Z,101490.91
2022-07-26T11:56:34.271Z,101486.56
2022-07-26T11:59:05.743Z,101482.16
2022-07-26T12:01:33.767Z,101483.41
2022-07-26T12:04:01.669Z,101492.03
2022-07-26T12:06:29.062Z,101485.72
2022-07-26T12:08:58.438Z,101492.75
2022-07-26T12:11:37.950Z,101498.94
2022-07-26T12:14:05.330Z,101496.13
2022-07-26T12:16:47.612Z,101494.25
2022-07-26T12:19:17.214Z,101504.00
2022-07-26T12:21:49.129Z,101504.91
2022-07-26T12:24:39.419Z,101489.34
